Time;durP1;ratioP1;P1;durP2;ratioP2;P2;SDS_P1;SDS_P2;PMS_P1;PMS_P2;Temp;Humidity;BMP_temperature;BMP_pressure;BME280_temperature;BME280_humidity;BME280_pressure;Samples;Min_cycle;Max_cycle;Signal;HPM_P1;HPM_P2
2023/04/06 00:01:14;;;;;;;15.90;7.28;;;9.00;99.90;;;;;;4922293;29;20055;-81
2023/04/06 00:03:41;;;;;;;17.92;6.60;;;9.00;99.90;;;;;;4939197;29;20050;-83
2023/04/06 00:06:07;;;;;;;15.43;6.50;;;9.10;99.90;;;;;;4938397;29;20312;-82
2023/04/06 00:08:34;;;;;;;15.25;6.57;;;9.10;99.90;;;;;;4939998;28;20043;-83
2023/04/06 00:11:01;;;;;;;16.83;6.65;;;9.10;99.90;;;;;;4958345;28;20049;-81
2023/04/06 00:13:28;;;;;;;15.18;6.22;;;9.10;99.90;;;;;;4943308;28;20053;-81
2023/04/06 00:15:55;;;;;;;16.00;6.15;;;9.10;99.90;;;;;;4962489;28;20054;-81
2023/04/06 00:18:21;;;;;;;14.82;6.43;;;9.10;99.90;;;;;;4962576;28;20054;-82
2023/04/06 00:20:48;;;;;;;13.48;6.03;;;9.10;99.90;;;;;;4961100;28;20055;-82
2023/04/06 00:23:16;;;;;;;15.75;6.03;;;9.10;99.90;;;;;;4979328;28;20042;-82
2023/04/06 00:25:42;;;;;;;15.57;6.22;;;9.10;99.90;;;;;;4946321;28;20050;-83
2023/04/06 00:28:09;;;;;;;16.35;6.07;;;9.10;99.90;;;;;;4961462;28;20042;-82
2023/04/06 00:30:36;;;;;;;13.15;5.72;;;9.10;99.90;;;;;;4946024;28;20082;-84
2023/04/06 00:33:03;;;;;;;14.45;5.63;;;9.00;99.90;;;;;;4961118;28;20035;-83
2023/04/06 00:35:29;;;;;;;13.18;5.25;;;9.10;99.90;;;;;;4945796;28;20138;-83
2023/04/06 00:37:56;;;;;;;12.38;5.07;;;9.00;99.90;;;;;;4946181;28;20057;-82
2023/04/06 00:40:23;;;;;;;10.18;4.28;;;9.10;99.90;;;;;;4960714;28;20363;-84
2023/04/06 00:42:49;;;;;;;9.88;4.15;;;9.00;99.90;;;;;;4978888;28;20069;-82
2023/04/06 00:45:16;;;;;;;10.02;4.20;;;9.10;99.90;;;;;;4961892;28;20047;-82
2023/04/06 00:47:43;;;;;;;10.50;3.70;;;9.10;99.90;;;;;;4960832;28;20062;-84
2023/04/06 00:50:09;;;;;;;17.55;3.55;;;9.10;99.90;;;;;;4978448;28;20093;-82
2023/04/06 00:52:36;;;;;;;9.65;3.67;;;9.10;99.90;;;;;;4945008;28;20493;-84
2023/04/06 00:55:05;;;;;;;8.10;3.47;;;9.10;99.90;;;;;;4943326;28;20477;-84
2023/04/06 00:57:38;;;;;;;6.63;2.75;;;9.10;99.90;;;;;;4961826;28;20047;-83
2023/04/06 01:00:05;;;;;;;6.90;3.00;;;9.10;99.90;;;;;;4977900;28;20128;-84
2023/04/06 01:02:32;;;;;;;6.80;2.92;;;9.10;99.90;;;;;;4945377;28;20062;-82
2023/04/06 01:04:59;;;;;;;7.13;2.78;;;9.10;99.90;;;;;;4961500;28;20042;-82
2023/04/06 01:07:44;;;;;;;6.13;2.28;;;9.10;99.90;;;;;;4960693;28;20416;-83
2023/04/06 01:10:15;;;;;;;7.45;2.90;;;9.10;99.90;;;;;;4961093;28;20058;-83
2023/04/06 01:12:42;;;;;;;7.57;2.80;;;9.10;99.90;;;;;;4944512;28;20066;-83
2023/04/06 01:15:18;;;;;;;8.55;2.53;;;9.10;99.90;;;;;;4961579;28;20381;-83
2023/04/06 01:17:50;;;;;;;5.97;2.50;;;9.10;99.90;;;;;;4946075;28;20503;-83
2023/04/06 01:20:16;;;;;;;5.47;2.33;;;9.10;99.90;;;;;;4960133;28;20667;-84
2023/04/06 01:22:45;;;;;;;5.80;2.30;;;9.10;99.90;;;;;;4961275;28;20070;-84
2023/04/06 01:25:12;;;;;;;6.25;2.40;;;9.10;99.90;;;;;;4960510;28;20470;-84
2023/04/06 01:27:50;;;;;;;5.80;2.20;;;9.10;99.90;;;;;;4960263;28;20473;-83
2023/04/06 01:30:21;;;;;;;6.45;2.42;;;9.10;99.90;;;;;;4960745;28;20046;-83
2023/04/06 01:32:52;;;;;;;5.90;2.38;;;9.10;99.90;;;;;;4945029;28;20051;-83
2023/04/06 01:35:33;;;;;;;4.95;1.98;;;9.10;99.90;;;;;;4961063;28;20134;-84
2023/04/06 01:38:13;;;;;;;6.13;2.33;;;9.10;99.90;;;;;;4961092;28;20109;-84
2023/04/06 01:40:39;;;;;;;6.68;2.20;;;9.10;99.90;;;;;;4959567;28;20145;-85
2023/04/06 01:43:06;;;;;;;6.00;2.20;;;9.10;99.90;;;;;;4960939;28;20105;-82
2023/04/06 01:45:42;;;;;;;5.18;2.08;;;9.10;99.90;;;;;;4960830;28;20097;-82
2023/04/06 01:48:18;;;;;;;5.15;1.83;;;9.10;99.90;;;;;;4960935;28;20129;-84
2023/04/06 01:50:45;;;;;;;5.90;2.30;;;9.10;99.90;;;;;;4944588;28;20089;-83
2023/04/06 01:53:18;;;;;;;5.15;2.00;;;9.10;99.90;;;;;;4944611;28;20488;-82
2023/04/06 01:55:46;;;;;;;5.72;2.20;;;9.10;99.90;;;;;;4960798;28;20062;-82
2023/04/06 01:58:35;;;;;;;5.40;1.90;;;9.10;99.90;;;;;;4960718;28;20061;-83
2023/04/06 02:01:02;;;;;;;8.60;2.00;;;9.10;99.90;;;;;;4959625;28;20051;-82
2023/04/06 02:03:37;;;;;;;5.18;2.10;;;9.10;99.90;;;;;;4960357;28;20050;-82
2023/04/06 02:06:08;;;;;;;4.60;1.80;;;9.10;99.90;;;;;;4959573;28;20299;-84
2023/04/06 02:08:39;;;;;;;4.85;1.90;;;9.10;99.90;;;;;;4960513;28;20050;-82
2023/04/06 02:11:06;;;;;;;5.45;2.17;;;9.10;99.90;;;;;;4944042;28;20093;-84
2023/04/06 02:13:39;;;;;;;4.78;1.80;;;9.20;99.90;;;;;;4944228;28;20042;-82
2023/04/06 02:16:06;;;;;;;5.68;2.05;;;9.10;99.90;;;;;;4960568;28;20114;-82
2023/04/06 02:18:32;;;;;;;5.22;2.00;;;9.10;99.90;;;;;;4977158;28;20450;-84
2023/04/06 02:20:59;;;;;;;4.32;1.75;;;9.10;99.90;;;;;;4958789;28;20050;-84
2023/04/06 02:23:26;;;;;;;5.40;2.25;;;9.10;99.90;;;;;;4944334;28;20043;-83
2023/04/06 02:25:53;;;;;;;4.28;1.67;;;9.20;99.90;;;;;;4959013;28;20043;-83
2023/04/06 02:28:19;;;;;;;4.55;1.80;;;9.10;99.90;;;;;;4960518;28;20054;-84
2023/04/06 02:30:46;;;;;;;5.13;1.90;;;9.20;99.90;;;;;;4943656;28;20050;-83
2023/04/06 02:33:13;;;;;;;5.28;2.00;;;9.20;99.90;;;;;;4958647;28;20047;-82
2023/04/06 02:35:43;;;;;;;4.57;1.95;;;9.20;99.90;;;;;;4959588;28;20051;-84
2023/04/06 02:38:10;;;;;;;4.43;1.75;;;9.20;99.90;;;;;;4943258;28;20051;-85
2023/04/06 02:40:37;;;;;;;4.93;1.80;;;9.20;99.90;;;;;;4942553;28;20042;-84
2023/04/06 02:43:16;;;;;;;5.63;2.10;;;9.20;99.90;;;;;;4959721;28;20059;-82
2023/04/06 02:45:44;;;;;;;5.28;2.05;;;9.20;99.90;;;;;;4943952;28;20066;-82
2023/04/06 02:48:12;;;;;;;5.88;2.10;;;9.20;99.90;;;;;;4958646;28;20131;-83
2023/04/06 02:50:38;;;;;;;4.57;2.03;;;9.30;99.90;;;;;;4959405;28;20038;-84
2023/04/06 02:53:06;;;;;;;7.55;2.40;;;9.20;99.90;;;;;;4958531;28;20047;-82
2023/04/06 02:55:35;;;;;;;4.95;2.05;;;9.20;99.90;;;;;;4944025;28;20058;-84
2023/04/06 02:58:02;;;;;;;4.60;2.00;;;9.20;99.90;;;;;;4943606;28;20070;-82
2023/04/06 03:00:36;;;;;;;4.82;1.90;;;9.20;99.90;;;;;;4943321;28;20046;-82
2023/04/06 03:03:03;;;;;;;5.82;1.98;;;9.20;99.90;;;;;;4959123;28;20050;-84
2023/04/06 03:05:30;;;;;;;4.10;1.60;;;9.20;99.90;;;;;;4943497;28;20085;-82
2023/04/06 03:07:57;;;;;;;5.28;1.80;;;9.20;99.90;;;;;;4942516;28;20049;-82
2023/04/06 03:10:34;;;;;;;4.10;1.50;;;9.20;99.90;;;;;;4959127;28;20058;-81
2023/04/06 03:13:01;;;;;;;3.35;1.45;;;9.20;99.90;;;;;;4958365;28;20047;-83
2023/04/06 03:15:48;;;;;;;3.55;1.38;;;9.20;99.90;;;;;;4962044;28;20047;-84
2023/04/06 03:18:17;;;;;;;3.60;1.42;;;9.20;99.90;;;;;;4959547;28;20428;-84
2023/04/06 03:20:47;;;;;;;3.80;1.52;;;9.20;99.90;;;;;;4942660;28;20043;-83
2023/04/06 03:23:16;;;;;;;2.97;1.38;;;9.30;99.90;;;;;;4959083;28;20085;-82
2023/04/06 03:25:44;;;;;;;2.58;1.10;;;9.30;99.90;;;;;;4943345;28;20061;-83
2023/04/06 03:28:15;;;;;;;3.17;1.20;;;9.30;99.90;;;;;;4959200;28;20054;-83
2023/04/06 03:30:50;;;;;;;2.38;1.10;;;9.30;99.90;;;;;;4943820;28;20042;-81
2023/04/06 03:33:23;;;;;;;1.48;0.90;;;9.30;99.90;;;;;;4958025;28;20105;-84
2023/04/06 03:35:53;;;;;;;2.72;1.10;;;9.30;99.90;;;;;;4945870;29;20114;-83
2023/04/06 03:38:22;;;;;;;1.73;0.93;;;9.30;99.90;;;;;;4924474;29;20051;-84
2023/04/06 03:40:48;;;;;;;2.50;1.10;;;9.30;99.90;;;;;;4938761;29;20138;-83
2023/04/06 03:43:17;;;;;;;2.40;1.02;;;9.30;99.90;;;;;;4924466;29;20142;-82
2023/04/06 03:45:44;;;;;;;3.10;1.30;;;9.30;99.90;;;;;;4939802;29;20047;-82
2023/04/06 03:48:13;;;;;;;3.10;1.30;;;9.30;99.90;;;;;;4939041;29;20043;-83
2023/04/06 03:50:39;;;;;;;3.00;1.35;;;9.30;99.90;;;;;;4923785;29;20102;-84
2023/04/06 03:53:06;;;;;;;3.67;1.35;;;9.30;99.90;;;;;;4939294;29;20043;-83
2023/04/06 03:55:33;;;;;;;4.20;1.60;;;9.30;99.90;;;;;;4924182;29;20069;-84
2023/04/06 03:58:00;;;;;;;3.17;1.30;;;9.30;99.90;;;;;;4939856;29;20212;-82
2023/04/06 04:00:27;;;;;;;4.03;1.65;;;9.40;99.90;;;;;;4922713;28;20079;-82
2023/04/06 04:02:54;;;;;;;4.70;1.90;;;9.40;99.90;;;;;;4923750;29;20042;-82
2023/04/06 04:05:24;;;;;;;5.13;1.92;;;9.40;99.90;;;;;;4924085;29;20537;-81
2023/04/06 04:07:52;;;;;;;6.18;2.08;;;9.40;99.90;;;;;;4955602;28;20095;-83
2023/04/06 04:10:22;;;;;;;5.07;2.20;;;9.40;99.90;;;;;;4923859;29;20043;-84
2023/04/06 04:12:49;;;;;;;6.10;2.47;;;9.40;99.90;;;;;;4938503;29;20380;-82
2023/04/06 04:15:16;;;;;;;6.40;2.70;;;9.40;99.90;;;;;;4923866;28;20051;-84
2023/04/06 04:17:46;;;;;;;6.10;2.70;;;9.40;99.90;;;;;;4939892;29;20514;-83
2023/04/06 04:20:13;;;;;;;7.18;2.83;;;9.40;99.90;;;;;;4922493;29;20062;-84
2023/04/06 04:22:40;;;;;;;6.38;2.90;;;9.40;99.90;;;;;;4939493;29;20044;-84
2023/04/06 04:25:07;;;;;;;6.53;2.97;;;9.40;99.90;;;;;;4923605;29;20470;-81
2023/04/06 04:27:38;;;;;;;7.43;3.00;;;9.40;99.90;;;;;;4938217;29;20126;-80
2023/04/06 04:30:05;;;;;;;8.15;3.00;;;9.50;99.90;;;;;;4923406;29;20079;-82
2023/04/06 04:32:32;;;;;;;10.35;3.63;;;9.40;99.90;;;;;;4938604;29;20361;-81
2023/04/06 04:35:01;;;;;;;8.82;3.40;;;9.50;99.90;;;;;;4924023;29;20051;-83
2023/04/06 04:37:35;;;;;;;7.70;3.60;;;9.50;99.90;;;;;;4939514;29;20047;-80
2023/04/06 04:40:02;;;;;;;8.48;3.45;;;9.50;99.90;;;;;;4922320;28;20355;-83
2023/04/06 04:42:35;;;;;;;7.70;3.60;;;9.50;99.90;;;;;;4924408;29;20047;-81
2023/04/06 04:45:04;;;;;;;7.00;3.22;;;9.50;99.90;;;;;;4923874;29;20389;-82
2023/04/06 04:47:35;;;;;;;7.10;3.17;;;9.50;99.90;;;;;;4923153;29;20359;-82
2023/04/06 04:50:03;;;;;;;7.63;3.20;;;9.50;99.90;;;;;;4923398;29;20044;-81
2023/04/06 04:52:31;;;;;;;7.57;3.42;;;9.50;99.90;;;;;;4922554;28;20051;-81
2023/04/06 04:55:15;;;;;;;7.55;3.40;;;9.60;99.90;;;;;;4925451;29;20057;-83
2023/04/06 04:57:45;;;;;;;8.63;3.70;;;9.60;99.90;;;;;;4923908;29;20051;-84
2023/04/06 05:00:12;;;;;;;8.85;3.70;;;9.60;99.90;;;;;;4923487;29;20449;-83
2023/04/06 05:02:41;;;;;;;8.73;3.53;;;9.60;99.90;;;;;;4917077;29;20126;-81
2023/04/06 05:05:16;;;;;;;7.15;3.35;;;9.60;99.90;;;;;;4923463;29;20071;-83
2023/04/06 05:07:44;;;;;;;8.88;3.92;;;9.60;99.90;;;;;;4907081;29;20047;-84
2023/04/06 05:10:19;;;;;;;8.02;3.35;;;9.60;99.90;;;;;;4923110;29;20106;-81
2023/04/06 05:12:53;;;;;;;8.35;3.53;;;9.60;99.90;;;;;;4907903;29;20480;-81
2023/04/06 05:15:21;;;;;;;8.35;3.85;;;9.60;99.90;;;;;;4923126;29;20043;-80
2023/04/06 05:17:51;;;;;;;8.30;3.30;;;9.60;99.90;;;;;;4908174;29;20111;-80
2023/04/06 05:20:24;;;;;;;9.32;3.97;;;9.60;99.90;;;;;;4907479;29;20380;-83
2023/04/06 05:22:51;;;;;;;8.73;3.78;;;9.60;99.90;;;;;;4923443;29;20043;-83
2023/04/06 05:25:19;;;;;;;8.80;3.72;;;9.70;99.90;;;;;;4907313;29;20044;-82
2023/04/06 05:27:50;;;;;;;7.03;3.28;;;9.70;99.90;;;;;;4922241;29;20061;-82
2023/04/06 05:30:37;;;;;;;8.18;3.67;;;9.70;99.90;;;;;;4939223;29;20048;-84
2023/04/06 05:33:04;;;;;;;8.48;3.60;;;9.70;99.90;;;;;;4922107;29;20058;-81
2023/04/06 05:35:45;;;;;;;9.98;4.00;;;9.70;99.90;;;;;;4923073;29;20048;-83
2023/04/06 05:38:13;;;;;;;9.27;3.70;;;9.70;99.90;;;;;;4939587;29;20129;-82
2023/04/06 05:40:40;;;;;;;7.57;3.55;;;9.80;99.90;;;;;;4906024;29;20079;-85
2023/04/06 05:43:11;;;;;;;8.77;4.20;;;9.70;99.90;;;;;;4907621;29;20439;-84
2023/04/06 05:45:42;;;;;;;9.10;3.50;;;9.80;99.90;;;;;;4923000;29;20051;-82
2023/04/06 05:48:09;;;;;;;9.75;4.15;;;9.80;99.90;;;;;;4906218;29;20058;-84
2023/04/06 05:50:36;;;;;;;13.23;4.40;;;9.80;99.90;;;;;;4922352;29;20075;-81
2023/04/06 05:53:03;;;;;;;8.98;3.97;;;9.80;99.90;;;;;;4921594;29;20082;-81
2023/04/06 05:55:37;;;;;;;12.23;4.05;;;9.80;99.90;;;;;;4907945;29;20048;-82
2023/04/06 05:58:11;;;;;;;11.00;4.15;;;9.80;99.90;;;;;;4922587;29;20431;-83
2023/04/06 06:00:38;;;;;;;9.48;4.00;;;9.80;99.90;;;;;;4921695;29;20446;-81
2023/04/06 06:03:08;;;;;;;8.60;3.53;;;9.80;99.90;;;;;;4935357;29;20497;-83
2023/04/06 06:05:36;;;;;;;8.55;3.92;;;9.80;99.90;;;;;;4925591;29;20043;-83
2023/04/06 06:08:10;;;;;;;;;;;9.90;99.90;;;;;;4941002;29;20118;-83
2023/04/06 06:10:37;;;;;;;10.30;3.92;;;9.90;99.90;;;;;;4940973;29;20383;-80
2023/04/06 06:13:05;;;;;;;9.50;3.70;;;9.90;99.90;;;;;;4940364;29;20046;-80
2023/04/06 06:15:32;;;;;;;9.07;3.60;;;9.90;99.90;;;;;;4941233;29;20039;-81
2023/04/06 06:17:59;;;;;;;9.25;3.63;;;10.00;99.90;;;;;;4941169;28;20402;-80
2023/04/06 06:20:26;;;;;;;11.13;4.60;;;10.00;99.90;;;;;;4939970;28;20054;-81
2023/04/06 06:22:53;;;;;;;9.80;4.00;;;10.10;99.90;;;;;;4941276;29;20466;-82
2023/04/06 06:25:21;;;;;;;9.50;4.05;;;10.10;99.90;;;;;;4940901;29;20062;-81
2023/04/06 06:27:49;;;;;;;9.52;3.83;;;10.10;99.90;;;;;;4940196;29;20134;-82
2023/04/06 06:30:18;;;;;;;8.98;4.07;;;10.10;99.90;;;;;;4940577;29;20043;-83
2023/04/06 06:32:48;;;;;;;10.68;4.20;;;10.10;99.90;;;;;;4939977;29;20485;-84
2023/04/06 06:35:16;;;;;;;9.95;3.72;;;10.10;99.90;;;;;;4941047;29;20114;-83
2023/04/06 06:37:43;;;;;;;11.10;4.35;;;10.20;99.90;;;;;;4940931;29;20051;-83
2023/04/06 06:40:15;;;;;;;8.25;3.72;;;10.10;99.90;;;;;;4939666;29;20071;-81
2023/04/06 06:42:43;;;;;;;8.73;3.58;;;10.10;99.90;;;;;;4941031;29;20114;-83
2023/04/06 06:45:25;;;;;;;9.50;3.50;;;10.20;99.90;;;;;;4942925;29;20057;-81
2023/04/06 06:47:52;;;;;;;9.55;3.63;;;10.20;99.90;;;;;;4940626;29;20043;-82
2023/04/06 06:50:21;;;;;;;8.65;3.72;;;10.30;99.90;;;;;;4940215;29;20043;-83
2023/04/06 06:52:48;;;;;;;8.48;3.03;;;10.30;99.90;;;;;;4939542;29;20355;-80
2023/04/06 06:55:15;;;;;;;7.45;3.28;;;10.40;99.90;;;;;;4957150;28;20439;-83
2023/04/06 06:57:42;;;;;;;7.43;3.30;;;10.40;99.90;;;;;;4924841;28;20050;-82
2023/04/06 07:00:10;;;;;;;7.93;3.60;;;10.50;99.90;;;;;;4923410;29;20048;-80
2023/04/06 07:02:40;;;;;;;7.00;3.08;;;10.50;99.90;;;;;;4924700;29;20363;-82
2023/04/06 07:05:06;;;;;;;7.22;3.00;;;10.60;99.90;;;;;;4924613;29;20047;-81
2023/04/06 07:07:54;;;;;;;7.60;2.95;;;10.60;99.90;;;;;;4939123;29;20130;-82
2023/04/06 07:10:21;;;;;;;8.82;3.17;;;10.60;99.90;;;;;;4940121;29;20154;-81
2023/04/06 07:12:47;;;;;;;9.30;3.05;;;10.60;99.90;;;;;;4940116;29;20050;-84
2023/04/06 07:15:14;;;;;;;7.13;3.17;;;10.60;99.90;;;;;;4958399;29;20471;-80
2023/04/06 07:17:41;;;;;;;7.78;3.05;;;10.60;99.90;;;;;;4924521;29;20051;-81
2023/04/06 07:20:08;;;;;;;9.10;3.20;;;10.60;99.90;;;;;;4922930;29;20433;-81
2023/04/06 07:22:35;;;;;;;10.20;3.45;;;10.60;99.90;;;;;;4923659;29;20474;-82
2023/04/06 07:25:02;;;;;;;7.95;3.42;;;10.70;99.90;;;;;;4940166;29;20047;-81
2023/04/06 07:27:28;;;;;;;7.25;3.10;;;10.90;99.90;;;;;;4939844;29;20067;-84
2023/04/06 07:29:55;;;;;;;7.68;2.88;;;11.00;99.90;;;;;;4924385;29;20047;-82
2023/04/06 07:32:22;;;;;;;7.07;2.88;;;11.10;99.90;;;;;;4942261;29;20377;-83
2023/04/06 07:34:49;;;;;;;7.18;3.05;;;11.20;99.90;;;;;;4938254;29;20447;-81
2023/04/06 07:37:17;;;;;;;8.55;3.40;;;11.40;99.90;;;;;;4939974;29;20133;-84
2023/04/06 07:39:45;;;;;;;6.55;2.85;;;11.40;99.90;;;;;;4938364;29;20074;-84
2023/04/06 07:42:12;;;;;;;7.32;3.10;;;11.40;99.90;;;;;;4940007;29;20371;-82
2023/04/06 07:44:39;;;;;;;7.93;2.90;;;11.40;99.90;;;;;;4939922;29;20542;-83
2023/04/06 07:47:05;;;;;;;5.90;2.40;;;11.40;99.90;;;;;;4939012;29;20051;-83
2023/04/06 07:49:32;;;;;;;6.07;2.92;;;11.40;99.90;;;;;;4939551;28;20427;-86
2023/04/06 07:52:02;;;;;;;7.63;2.53;;;11.40;99.90;;;;;;4940078;29;20061;-86
2023/04/06 07:54:29;;;;;;;7.03;2.50;;;11.40;99.90;;;;;;4923419;29;20389;-87
2023/04/06 07:56:56;;;;;;;5.55;2.13;;;11.40;99.90;;;;;;4939928;29;20390;-83
2023/04/06 07:59:23;;;;;;;5.75;2.00;;;11.40;99.90;;;;;;4938649;29;20062;-84
2023/04/06 08:01:49;;;;;;;4.65;1.73;;;11.30;99.90;;;;;;4935633;29;20062;-83
2023/04/06 08:07:12;;;;;;;5.03;1.70;;;11.30;99.90;;;;;;4936280;29;20056;-86
2023/04/06 08:09:39;;;;;;;5.05;1.70;;;11.20;99.90;;;;;;4916651;29;20050;-86
2023/04/06 08:12:05;;;;;;;4.15;1.58;;;11.20;99.90;;;;;;4936945;29;20386;-86
2023/04/06 08:14:32;;;;;;;7.15;1.80;;;11.10;99.90;;;;;;4920085;29;20058;-86
2023/04/06 08:16:59;;;;;;;4.72;1.70;;;11.10;99.90;;;;;;4936539;29;20154;-83
2023/04/06 08:19:26;;;;;;;6.93;1.60;;;11.10;99.90;;;;;;4935742;29;20370;-86
2023/04/06 08:21:52;;;;;;;4.63;1.40;;;11.10;99.90;;;;;;4937639;29;20052;-84
2023/04/06 08:24:19;;;;;;;6.60;1.85;;;11.10;99.90;;;;;;4921092;29;20455;-84
2023/04/06 08:26:46;;;;;;;8.40;1.70;;;11.10;99.90;;;;;;4935306;29;20382;-83
2023/04/06 08:29:13;;;;;;;4.75;1.20;;;11.00;99.90;;;;;;4916807;29;20035;-84
2023/04/06 08:31:40;;;;;;;7.05;1.73;;;11.00;99.90;;;;;;4935035;29;20055;-84
2023/04/06 08:34:06;;;;;;;5.05;1.52;;;11.00;99.90;;;;;;4936139;29;20132;-84
2023/04/06 08:36:36;;;;;;;4.68;1.45;;;10.90;99.90;;;;;;4938939;29;20083;-85
2023/04/06 08:39:03;;;;;;;6.95;1.73;;;10.90;99.90;;;;;;4942527;29;20110;-84
2023/04/06 08:41:30;;;;;;;5.05;1.73;;;10.90;99.90;;;;;;4941329;29;20114;-85
2023/04/06 08:43:56;;;;;;;5.35;1.63;;;11.00;99.90;;;;;;4958610;28;20367;-86
2023/04/06 08:46:29;;;;;;;5.63;1.48;;;11.10;99.90;;;;;;4939739;29;20048;-86
2023/04/06 08:48:55;;;;;;;9.63;1.77;;;11.10;99.90;;;;;;4957238;28;20039;-84
2023/04/06 08:51:22;;;;;;;6.22;1.60;;;11.20;99.90;;;;;;4958283;28;20043;-86
2023/04/06 08:53:49;;;;;;;9.48;1.73;;;11.30;99.90;;;;;;4958367;28;20484;-84
2023/04/06 08:56:16;;;;;;;9.80;1.95;;;11.30;99.90;;;;;;4958906;28;20058;-84
2023/04/06 08:58:43;;;;;;;7.25;1.90;;;11.40;99.90;;;;;;4958215;28;20103;-85
2023/04/06 09:01:10;;;;;;;6.60;1.83;;;11.40;99.90;;;;;;4957559;28;20141;-85
2023/04/06 09:03:36;;;;;;;9.57;1.63;;;11.50;99.90;;;;;;4941613;29;20063;-85
2023/04/06 09:06:04;;;;;;;8.45;2.13;;;11.60;99.90;;;;;;4922880;29;20043;-87
2023/04/06 09:08:30;;;;;;;12.77;2.28;;;11.60;99.90;;;;;;4938166;29;20047;-86
2023/04/06 09:10:57;;;;;;;9.45;2.08;;;11.60;99.90;;;;;;4959792;28;20044;-84
2023/04/06 09:13:24;;;;;;;7.50;1.83;;;11.70;99.90;;;;;;4962437;28;20078;-84
2023/04/06 09:15:51;;;;;;;9.75;1.95;;;11.80;99.90;;;;;;4957844;28;20442;-84
2023/04/06 09:18:18;;;;;;;6.53;1.80;;;12.00;99.90;;;;;;4957673;29;20047;-84
2023/04/06 09:20:45;;;;;;;7.07;1.60;;;12.10;99.90;;;;;;4940303;29;20047;-84
2023/04/06 09:23:11;;;;;;;14.10;2.13;;;12.10;99.90;;;;;;4957291;28;20050;-84
2023/04/06 09:25:38;;;;;;;10.57;1.80;;;12.00;99.90;;;;;;4956677;28;20455;-84
2023/04/06 09:28:06;;;;;;;6.25;1.70;;;12.00;99.90;;;;;;4956167;28;20051;-84
2023/04/06 09:30:35;;;;;;;11.13;2.08;;;12.00;99.90;;;;;;4957019;28;20039;-85
2023/04/06 09:33:02;;;;;;;8.40;2.25;;;12.10;99.90;;;;;;4956067;28;20466;-85
2023/04/06 09:35:31;;;;;;;10.98;2.13;;;12.10;99.90;;;;;;4953513;28;20146;-85
2023/04/06 09:37:57;;;;;;;14.90;2.38;;;12.10;99.90;;;;;;4945498;29;20077;-85
2023/04/06 09:40:25;;;;;;;9.80;2.10;;;12.00;99.90;;;;;;4953507;28;20040;-85
2023/04/06 09:42:52;;;;;;;8.75;2.10;;;12.00;99.90;;;;;;4938094;29;20494;-85
2023/04/06 09:45:20;;;;;;;9.18;1.83;;;12.00;99.90;;;;;;4937593;29;20457;-85
2023/04/06 09:47:47;;;;;;;10.90;2.28;;;12.00;99.90;;;;;;4936939;29;20089;-86
2023/04/06 09:50:15;;;;;;;12.30;2.50;;;12.00;99.90;;;;;;4937363;29;20036;-85
2023/04/06 09:52:43;;;;;;;7.07;2.17;;;11.90;99.90;;;;;;4937026;29;20040;-85
2023/04/06 09:55:09;;;;;;;9.65;2.20;;;11.80;99.90;;;;;;4921987;29;20054;-85
2023/04/06 09:57:36;;;;;;;9.10;2.55;;;11.70;99.90;;;;;;4937865;29;20040;-85
2023/04/06 10:00:11;;;;;;;11.38;2.33;;;11.70;99.90;;;;;;4920784;29;20378;-85
2023/04/06 10:02:38;;;;;;;11.07;2.25;;;11.70;99.90;;;;;;4937661;29;20051;-85
2023/04/06 10:05:04;;;;;;;10.60;2.63;;;11.70;99.90;;;;;;4940802;29;20047;-86
2023/04/06 10:07:32;;;;;;;8.05;2.20;;;11.80;99.90;;;;;;4940063;28;20040;-84
2023/04/06 10:09:59;;;;;;;14.13;2.47;;;11.90;99.90;;;;;;4940345;29;20470;-84
2023/04/06 10:12:26;;;;;;;10.50;2.15;;;12.20;99.90;;;;;;4957725;28;20039;-85
2023/04/06 10:14:54;;;;;;;12.25;2.45;;;12.30;99.90;;;;;;4939838;29;20145;-85
2023/04/06 10:17:20;;;;;;;10.50;2.50;;;12.60;99.90;;;;;;4940411;28;20051;-85
2023/04/06 10:19:47;;;;;;;12.43;2.22;;;12.80;99.90;;;;;;4939687;29;20044;-86
2023/04/06 10:22:14;;;;;;;11.88;2.38;;;12.70;99.90;;;;;;4926163;29;20427;-87
2023/04/06 10:24:41;;;;;;;10.30;2.10;;;12.50;99.90;;;;;;4941846;29;20069;-85
2023/04/06 10:27:10;;;;;;;12.20;2.30;;;12.40;99.90;;;;;;4924275;29;20458;-82
2023/04/06 10:29:37;;;;;;;7.03;2.10;;;12.40;99.90;;;;;;4940654;29;20054;-82
2023/04/06 10:32:04;;;;;;;12.25;1.75;;;12.60;99.90;;;;;;4940983;29;20043;-80
2023/04/06 10:34:34;;;;;;;12.38;1.90;;;12.60;99.90;;;;;;4939511;29;20047;-82
2023/04/06 10:37:00;;;;;;;6.80;1.80;;;12.70;99.90;;;;;;4925215;29;20051;-82
2023/04/06 10:39:27;;;;;;;5.97;1.80;;;12.80;99.90;;;;;;4939497;29;20474;-82
2023/04/06 10:41:54;;;;;;;7.95;1.80;;;13.10;99.90;;;;;;4924997;29;20051;-86
2023/04/06 10:44:21;;;;;;;8.77;1.95;;;13.30;99.90;;;;;;4940839;29;20058;-83
2023/04/06 10:46:48;;;;;;;6.32;1.65;;;13.60;99.90;;;;;;4940168;29;20058;-84
2023/04/06 10:49:14;;;;;;;12.52;2.00;;;13.90;99.90;;;;;;4957403;29;20092;-86
2023/04/06 10:51:44;;;;;;;8.73;1.83;;;14.10;99.90;;;;;;4940841;29;20047;-84
2023/04/06 10:54:13;;;;;;;8.63;1.77;;;14.20;99.90;;;;;;4956977;29;20126;-85
2023/04/06 10:56:40;;;;;;;5.90;1.60;;;14.10;99.90;;;;;;4940654;28;20047;-86
2023/04/06 10:59:07;;;;;;;5.72;1.63;;;13.80;99.90;;;;;;4940211;29;20467;-85
2023/04/06 11:01:34;;;;;;;8.57;1.80;;;13.70;99.90;;;;;;4924103;28;20039;-84
2023/04/06 11:04:01;;;;;;;6.47;1.60;;;13.40;99.90;;;;;;4940430;29;20537;-84
2023/04/06 11:06:29;;;;;;;8.80;1.80;;;13.40;99.90;;;;;;4939219;29;20047;-86
2023/04/06 11:08:55;;;;;;;6.10;1.83;;;13.40;99.90;;;;;;4940185;29;20047;-85
2023/04/06 11:11:23;;;;;;;5.75;1.50;;;13.70;99.90;;;;;;4924463;29;20035;-86
2023/04/06 11:13:49;;;;;;;6.22;1.70;;;13.90;99.90;;;;;;4939472;28;20055;-87
2023/04/06 11:16:16;;;;;;;6.82;1.67;;;13.90;99.90;;;;;;4941758;29;20050;-86
2023/04/06 11:18:43;;;;;;;5.80;1.65;;;13.90;99.90;;;;;;4940174;29;20047;-84
2023/04/06 11:21:10;;;;;;;7.22;1.90;;;14.00;99.90;;;;;;4923133;29;20053;-87
2023/04/06 11:23:37;;;;;;;9.55;1.73;;;14.30;99.90;;;;;;4923755;29;20047;-86
2023/04/06 11:26:04;;;;;;;6.95;1.77;;;14.70;99.90;;;;;;4923488;28;20049;-88
2023/04/06 11:28:30;;;;;;;5.28;1.65;;;15.20;99.90;;;;;;4939979;29;20464;-86
2023/04/06 11:30:57;;;;;;;5.97;1.67;;;15.30;99.90;;;;;;4924259;29;20050;-88
2023/04/06 11:36:14;;;;;;;5.20;1.52;;;15.20;99.90;;;;;;4956171;29;20138;-89
2023/04/06 11:38:42;;;;;;;5.80;1.60;;;14.90;99.90;;;;;;4924257;29;20102;-88
2023/04/06 11:41:08;;;;;;;4.45;1.38;;;14.80;99.90;;;;;;4939084;29;20043;-86
2023/04/06 11:43:35;;;;;;;4.32;1.58;;;15.10;99.90;;;;;;4923965;29;20070;-87
2023/04/06 11:46:02;;;;;;;7.47;1.65;;;15.10;99.90;;;;;;4956248;29;20126;-86
2023/04/06 11:48:29;;;;;;;6.75;1.80;;;15.10;99.90;;;;;;4923827;29;20039;-87
2023/04/06 11:50:56;;;;;;;6.22;1.75;;;15.60;99.90;;;;;;4939291;29;20106;-85
2023/04/06 11:53:23;;;;;;;9.65;1.90;;;15.30;99.90;;;;;;4938699;29;20134;-85
2023/04/06 11:55:49;;;;;;;6.15;1.85;;;15.10;99.90;;;;;;4940756;29;20155;-87
2023/04/06 11:58:16;;;;;;;4.90;1.52;;;15.10;99.90;;;;;;4939028;29;20043;-87
2023/04/06 12:00:46;;;;;;;6.13;1.33;;;15.00;99.90;;;;;;4937349;29;20434;-89
2023/04/06 12:03:13;;;;;;;6.38;1.48;;;14.50;99.90;;;;;;4938878;29;20047;-86
2023/04/06 12:05:40;;;;;;;6.50;1.60;;;14.30;99.90;;;;;;4939189;29;20055;-87
2023/04/06 12:08:07;;;;;;;8.63;1.80;;;14.30;99.90;;;;;;4933437;29;20050;-88
2023/04/06 12:10:34;;;;;;;6.13;2.25;;;14.20;99.90;;;;;;4923865;29;20478;-86
2023/04/06 12:15:47;;;;;;;5.90;1.58;;;14.10;99.90;;;;;;4941312;29;20052;-90
2023/04/06 12:18:14;;;;;;;5.30;1.90;;;14.40;99.90;;;;;;4924460;29;20142;-87
2023/04/06 12:20:41;;;;;;;6.35;1.40;;;14.80;99.90;;;;;;4940835;29;20058;-86
2023/04/06 12:25:57;;;;;;;4.82;1.50;;;15.20;99.90;;;;;;4942652;29;20057;-86
2023/04/06 12:28:26;;;;;;;4.50;1.40;;;15.40;99.90;;;;;;4943648;29;20067;-85
2023/04/06 12:30:54;;;;;;;6.57;1.73;;;15.50;99.90;;;;;;4943738;29;20051;-85
2023/04/06 12:33:21;;;;;;;5.15;1.33;;;15.50;99.90;;;;;;4927145;29;20051;-85
2023/04/06 12:35:48;;;;;;;7.22;1.40;;;15.30;99.90;;;;;;4943331;29;20147;-85
2023/04/06 12:38:15;;;;;;;5.65;1.45;;;15.30;99.90;;;;;;4943021;29;20071;-86
2023/04/06 12:40:42;;;;;;;4.25;1.38;;;15.40;99.90;;;;;;4942043;29;20118;-86
2023/04/06 12:45:56;;;;;;;3.80;1.20;;;15.30;99.90;;;;;;4941845;29;20146;-85
2023/04/06 12:48:23;;;;;;;5.88;1.20;;;15.50;99.90;;;;;;4942633;29;20043;-85
2023/04/06 12:50:51;;;;;;;5.18;1.20;;;15.90;99.90;;;;;;4943086;29;20042;-87
2023/04/06 12:53:20;;;;;;;5.22;1.38;;;16.10;99.90;;;;;;4959271;29;20446;-85
2023/04/06 12:55:46;;;;;;;2.60;1.02;;;16.90;99.90;;;;;;4942976;29;20039;-87
2023/04/06 12:58:15;;;;;;;6.05;1.33;;;17.50;99.90;;;;;;4927044;29;20043;-87
2023/04/06 13:00:41;;;;;;;3.40;1.05;;;17.80;99.90;;;;;;4941834;29;20074;-86
2023/04/06 13:03:08;;;;;;;6.18;1.33;;;17.30;99.90;;;;;;4942355;29;20047;-85
2023/04/06 13:05:35;;;;;;;5.20;1.17;;;17.10;99.90;;;;;;4942823;29;20047;-85
2023/04/06 13:08:02;;;;;;;5.63;1.20;;;17.20;99.90;;;;;;4926273;29;20438;-87
2023/04/06 13:10:38;;;;;;;3.80;1.17;;;16.70;99.90;;;;;;4928274;29;20058;-85